createdAt,value
2019-01-10T00:00:38.349Z,76.80
2019-01-10T00:03:07.510Z,72.00
2019-01-10T00:05:36.669Z,66.20
2019-01-10T00:08:05.788Z,61.03
2019-01-10T00:10:35.045Z,58.67
2019-01-10T00:13:04.173Z,55.87
2019-01-10T00:15:33.349Z,53.93
2019-01-10T00:18:02.769Z,50.23
2019-01-10T00:20:31.897Z,55.07
2019-01-10T00:23:01.005Z,51.30
2019-01-10T00:25:30.230Z,49.53
2019-01-10T00:27:59.433Z,49.83
2019-01-10T00:30:28.630Z,48.07
2019-01-10T00:32:57.785Z,51.27
2019-01-10T00:35:26.921Z,48.40
2019-01-10T00:37:56.065Z,46.20
2019-01-10T00:40:25.208Z,50.77
2019-01-10T00:42:54.325Z,48.60
2019-01-10T00:45:23.453Z,49.23
2019-01-10T00:47:52.557Z,47.03
2019-01-10T00:50:23.733Z,51.80
2019-01-10T00:52:54.261Z,47.77
2019-01-10T00:55:23.381Z,50.20
2019-01-10T00:57:52.502Z,50.57
2019-01-10T01:00:26.395Z,48.50
2019-01-10T01:02:55.529Z,49.60
2019-01-10T01:05:24.893Z,50.40
2019-01-10T01:07:54.384Z,47.27
2019-01-10T01:10:27.954Z,49.07
2019-01-10T01:12:58.670Z,50.73
2019-01-10T01:15:28.196Z,49.50
2019-01-10T01:17:57.313Z,49.13
2019-01-10T01:20:26.839Z,52.43
2019-01-10T01:22:55.969Z,51.87
2019-01-10T01:25:25.079Z,52.00
2019-01-10T01:27:54.222Z,50.90
2019-01-10T01:30:24.938Z,49.90
2019-01-10T01:32:54.076Z,48.37
2019-01-10T01:35:23.197Z,45.83
2019-01-10T01:37:52.333Z,46.30
2019-01-10T01:40:21.814Z,51.27
2019-01-10T01:42:51.239Z,48.60
2019-01-10T01:45:20.749Z,51.07
2019-01-10T01:47:49.985Z,50.60
2019-01-10T01:50:21.425Z,47.77
2019-01-10T01:52:50.759Z,46.47
2019-01-10T01:55:19.941Z,46.20
2019-01-10T01:57:49.168Z,49.80
2019-01-10T02:00:23.478Z,47.00
2019-01-10T02:02:52.582Z,46.87
2019-01-10T02:05:21.802Z,44.50
2019-01-10T02:07:51.213Z,44.73
2019-01-10T02:10:25.818Z,43.77
2019-01-10T02:12:55.072Z,44.97
2019-01-10T02:15:24.233Z,43.27
2019-01-10T02:17:53.339Z,44.60
2019-01-10T02:20:22.691Z,45.40
2019-01-10T02:22:51.910Z,43.60
2019-01-10T02:25:21.087Z,43.90
2019-01-10T02:27:50.310Z,45.73
2019-01-10T02:30:22.130Z,43.83
2019-01-10T02:32:51.251Z,42.23
2019-01-10T02:35:20.381Z,41.50
2019-01-10T02:37:49.961Z,43.60
2019-01-10T02:40:19.158Z,41.67
2019-01-10T02:42:48.277Z,43.37
2019-01-10T02:45:17.825Z,42.60
2019-01-10T02:47:46.957Z,42.73
2019-01-10T02:50:18.577Z,45.13
2019-01-10T02:52:47.849Z,44.77
2019-01-10T02:55:17.089Z,44.43
2019-01-10T02:57:46.886Z,43.33
2019-01-10T03:00:18.966Z,42.43
2019-01-10T03:02:48.339Z,41.43
2019-01-10T03:05:17.695Z,42.37
2019-01-10T03:07:46.821Z,43.17
2019-01-10T03:10:18.330Z,44.70
2019-01-10T03:12:47.461Z,41.80
2019-01-10T03:15:16.895Z,41.87
2019-01-10T03:17:46.039Z,41.20
2019-01-10T03:20:17.718Z,40.37
2019-01-10T03:22:47.130Z,40.80
2019-01-10T03:25:16.241Z,37.83
2019-01-10T03:27:45.429Z,41.60
2019-01-10T03:30:16.499Z,38.23
2019-01-10T03:32:45.618Z,36.90
2019-01-10T03:35:14.833Z,39.33
2019-01-10T03:37:44.294Z,38.63
2019-01-10T03:40:15.934Z,38.57
2019-01-10T03:42:45.082Z,37.63
2019-01-10T03:45:15.727Z,37.40
2019-01-10T03:47:44.869Z,36.73
2019-01-10T03:50:14.894Z,35.60
2019-01-10T03:52:44.118Z,35.93
2019-01-10T03:55:13.508Z,37.33
2019-01-10T03:57:42.629Z,36.00
2019-01-10T04:00:15.317Z,36.57
2019-01-10T04:02:44.741Z,36.50
2019-01-10T04:05:14.186Z,34.67
2019-01-10T04:07:43.305Z,36.70
2019-01-10T04:10:13.047Z,34.60
2019-01-10T04:12:42.167Z,37.27
2019-01-10T04:15:11.769Z,33.60
2019-01-10T04:17:40.885Z,33.53
2019-01-10T04:20:11.454Z,32.23
2019-01-10T04:22:40.600Z,32.63
2019-01-10T04:25:09.785Z,33.50
2019-01-10T04:27:38.897Z,33.83
2019-01-10T04:30:10.763Z,31.70
2019-01-10T04:32:39.866Z,30.83
2019-01-10T04:35:09.103Z,31.77
2019-01-10T04:37:38.245Z,31.57
2019-01-10T04:40:09.077Z,32.87
2019-01-10T04:42:38.481Z,32.87
2019-01-10T04:45:08.028Z,32.87
2019-01-10T04:47:37.133Z,30.27
2019-01-10T04:50:06.773Z,32.67
2019-01-10T04:52:35.893Z,32.67
2019-01-10T04:55:05.649Z,33.03
2019-01-10T04:57:35.154Z,34.37
2019-01-10T05:00:06.063Z,32.77
2019-01-10T05:02:35.178Z,34.60
2019-01-10T05:05:04.997Z,32.83
2019-01-10T05:07:34.107Z,32.90
2019-01-10T05:10:03.239Z,32.53
2019-01-10T05:12:32.385Z,32.77
2019-01-10T05:15:01.489Z,31.77
2019-01-10T05:17:30.589Z,30.73
2019-01-10T05:20:00.244Z,30.97
2019-01-10T05:22:29.349Z,31.10
2019-01-10T05:36:56.332Z,33.70
2019-01-10T05:39:25.586Z,31.57
2019-01-10T05:41:54.836Z,32.10
2019-01-10T05:44:26.696Z,34.70
2019-01-10T05:46:55.103Z,36.73
2019-01-10T05:49:24.609Z,33.50
2019-01-10T05:51:53.830Z,34.33
2019-01-10T05:54:23.061Z,33.90
2019-01-10T05:56:52.345Z,33.73
2019-01-10T05:59:21.899Z,33.37
2019-01-10T06:01:51.117Z,30.60
2019-01-10T06:04:20.405Z,30.43
2019-01-10T06:06:49.758Z,31.73
2019-01-10T06:09:19.081Z,30.70
2019-01-10T06:11:48.443Z,33.20
2019-01-10T06:14:17.615Z,32.03
2019-01-10T06:16:46.873Z,31.83
2019-01-10T06:19:16.096Z,29.67
2019-01-10T06:21:49.001Z,31.90
2019-01-10T06:24:18.232Z,32.47
2019-01-10T06:26:47.783Z,31.63
2019-01-10T06:29:17.074Z,34.67
2019-01-10T06:31:46.521Z,33.27
2019-01-10T06:34:15.855Z,34.37
2019-01-10T06:36:45.097Z,33.67
2019-01-10T06:39:14.324Z,36.53
2019-01-10T06:41:43.625Z,36.27
2019-01-10T06:44:12.889Z,37.27
2019-01-10T06:46:42.538Z,36.30
2019-01-10T06:49:11.704Z,35.73
2019-01-10T06:51:40.942Z,36.00
2019-01-10T06:54:10.220Z,34.60
2019-01-10T06:56:39.557Z,33.23
2019-01-10T06:59:08.842Z,36.20
2019-01-10T07:01:38.167Z,35.20
2019-01-10T07:04:07.569Z,33.77
2019-01-10T07:06:37.815Z,36.50
2019-01-10T07:09:09.283Z,35.47
2019-01-10T07:11:38.429Z,36.13
2019-01-10T07:14:07.825Z,37.60
2019-01-10T07:16:39.165Z,37.57
2019-01-10T07:19:08.706Z,36.50
2019-01-10T07:21:56.844Z,37.00
2019-01-10T07:24:27.092Z,36.20
2019-01-10T07:26:59.473Z,37.60
2019-01-10T07:29:28.633Z,39.17
2019-01-10T07:32:01.122Z,39.20
2019-01-10T07:34:30.333Z,41.13
2019-01-10T07:36:59.835Z,40.87
2019-01-10T07:39:29.019Z,40.87
2019-01-10T07:41:58.202Z,39.27
2019-01-10T07:44:27.850Z,39.63
2019-01-10T07:46:57.134Z,37.80
2019-01-10T07:49:26.345Z,39.10
2019-01-10T07:51:57.499Z,40.07
2019-01-10T07:54:26.692Z,40.60
2019-01-10T07:56:55.862Z,39.90
2019-01-10T07:59:25.326Z,39.43
2019-01-10T08:01:54.829Z,42.20
2019-01-10T08:04:24.021Z,40.50
2019-01-10T08:06:53.236Z,43.57
2019-01-10T08:09:22.724Z,43.43
2019-01-10T08:12:00.115Z,42.80
2019-01-10T08:14:22.769Z,40.93
2019-01-10T08:16:52.269Z,41.37
2019-01-10T08:19:21.429Z,42.97
2019-01-10T08:21:50.549Z,42.03
2019-01-10T08:24:19.757Z,44.47
2019-01-10T08:26:48.934Z,45.00
2019-01-10T08:29:18.141Z,44.70
2019-01-10T08:31:47.254Z,45.80
2019-01-10T08:34:16.409Z,45.33
2019-01-10T08:36:45.653Z,44.93
2019-01-10T08:39:14.867Z,44.53
2019-01-10T08:41:44.185Z,47.23
2019-01-10T08:44:13.385Z,45.90
2019-01-10T08:46:42.895Z,46.23
2019-01-10T08:49:12.000Z,46.37
2019-01-10T08:51:41.139Z,46.27
2019-01-10T08:54:10.361Z,49.33
2019-01-10T08:56:39.619Z,48.67
2019-01-10T08:59:09.037Z,46.90
2019-01-10T09:01:38.162Z,49.43
2019-01-10T09:04:07.274Z,50.60
2019-01-10T09:06:36.417Z,52.30
2019-01-10T09:09:08.967Z,50.53
2019-01-10T09:11:38.186Z,50.83
2019-01-10T09:14:07.366Z,53.83
2019-01-10T09:16:36.733Z,51.70
2019-01-10T09:19:06.285Z,48.93
2019-01-10T09:21:35.497Z,52.77
2019-01-10T09:24:05.689Z,46.43
2019-01-10T09:26:37.736Z,48.30
2019-01-10T09:29:05.837Z,48.67
2019-01-10T09:31:35.126Z,49.47
2019-01-10T09:34:04.394Z,49.47
2019-01-10T09:36:33.706Z,51.57
2019-01-10T09:39:03.077Z,52.10
2019-01-10T09:41:32.393Z,50.53
2019-01-10T09:44:01.577Z,49.93
2019-01-10T09:46:30.709Z,45.33
2019-01-10T09:48:59.840Z,43.13
2019-01-10T09:51:29.213Z,47.13
2019-01-10T09:53:58.380Z,48.23
2019-01-10T09:56:27.559Z,49.13
2019-01-10T09:58:57.112Z,47.07
2019-01-10T10:01:26.218Z,49.57
2019-01-10T10:03:55.825Z,48.13
2019-01-10T10:06:25.146Z,50.07
2019-01-10T10:08:54.264Z,51.80
2019-01-10T10:11:23.366Z,53.67
2019-01-10T10:13:52.565Z,47.97
2019-01-10T10:16:21.672Z,47.37
2019-01-10T10:18:51.233Z,45.83
2019-01-10T10:21:20.380Z,43.60
2019-01-10T10:23:49.489Z,41.87
2019-01-10T10:26:18.722Z,41.37
2019-01-10T10:28:47.853Z,42.13
2019-01-10T10:31:16.981Z,43.87
2019-01-10T10:33:46.321Z,42.93
2019-01-10T10:36:15.466Z,43.00
2019-01-10T10:38:44.594Z,45.20
2019-01-10T10:41:13.850Z,46.63
2019-01-10T10:43:43.246Z,48.03
2019-01-10T10:46:12.602Z,48.57
2019-01-10T10:48:41.748Z,48.80
2019-01-10T10:51:10.948Z,48.93
2019-01-10T10:53:40.157Z,51.67
2019-01-10T10:56:09.465Z,50.17
2019-01-10T10:58:39.147Z,49.10
2019-01-10T11:01:08.422Z,49.60
2019-01-10T11:03:38.876Z,45.23
2019-01-10T11:06:08.572Z,44.80
2019-01-10T11:08:37.773Z,44.67
2019-01-10T11:11:07.285Z,46.40
2019-01-10T11:13:36.486Z,45.67
2019-01-10T11:16:10.373Z,49.00
2019-01-10T11:18:36.644Z,47.87
2019-01-10T11:21:06.105Z,48.80
2019-01-10T11:23:35.365Z,41.43
2019-01-10T11:26:05.018Z,37.83
2019-01-10T11:28:34.333Z,34.20
2019-01-10T11:31:03.793Z,38.83
2019-01-10T11:33:32.917Z,38.53
2019-01-10T11:36:02.071Z,35.23
2019-01-10T11:38:31.501Z,32.67
2019-01-10T11:41:03.449Z,35.03
2019-01-10T11:43:32.561Z,33.77
2019-01-10T11:46:01.825Z,32.93
2019-01-10T11:48:31.017Z,32.30
2019-01-10T11:51:00.253Z,33.70
2019-01-10T11:53:35.425Z,35.97
2019-01-10T11:56:00.720Z,39.77
2019-01-10T11:58:29.874Z,37.10
2019-01-10T12:01:00.015Z,35.17
2019-01-10T12:03:30.830Z,34.20
2019-01-10T12:06:00.049Z,33.03
2019-01-10T12:08:29.648Z,34.37
2019-01-10T12:10:59.024Z,33.73
2019-01-10T12:13:28.277Z,33.73
2019-01-10T12:15:57.533Z,33.40
2019-01-10T12:18:26.767Z,37.50
2019-01-10T12:20:56.109Z,36.60
2019-01-10T12:23:25.265Z,36.43
2019-01-10T12:25:54.611Z,35.00
2019-01-10T12:28:26.693Z,34.43
2019-01-10T12:30:55.936Z,33.00
2019-01-10T12:33:25.109Z,33.57
2019-01-10T12:35:54.653Z,32.63
2019-01-10T12:38:23.765Z,33.27
2019-01-10T12:40:52.865Z,33.70
2019-01-10T12:43:22.351Z,34.37
2019-01-10T12:45:51.483Z,34.53
2019-01-10T12:48:20.605Z,34.87
2019-01-10T12:50:49.805Z,36.17
2019-01-10T12:53:18.969Z,32.70
2019-01-10T12:55:48.115Z,35.50
2019-01-10T12:58:17.222Z,34.67
2019-01-10T13:00:46.646Z,35.87
2019-01-10T13:03:15.869Z,37.63
2019-01-10T13:05:47.769Z,41.47
2019-01-10T13:08:16.929Z,42.90
2019-01-10T13:10:46.422Z,40.83
2019-01-10T13:13:15.544Z,36.30
2019-01-10T13:15:44.785Z,38.43
2019-01-10T13:18:13.933Z,36.43
2019-01-10T13:20:43.073Z,36.83
2019-01-10T13:23:12.177Z,39.87
2019-01-10T13:25:41.732Z,37.20
2019-01-10T13:28:11.029Z,37.37
2019-01-10T13:30:40.157Z,38.70
2019-01-10T13:33:09.657Z,38.43
2019-01-10T13:35:38.812Z,37.87
2019-01-10T13:38:08.160Z,38.07
2019-01-10T13:40:39.053Z,38.67
2019-01-10T13:43:08.255Z,36.97
2019-01-10T13:45:45.821Z,38.07
2019-01-10T13:48:09.025Z,39.00
2019-01-10T13:50:38.273Z,38.57
2019-01-10T13:53:07.761Z,39.50
2019-01-10T13:55:37.168Z,40.70
2019-01-10T13:58:06.300Z,43.30
2019-01-10T14:00:36.016Z,42.10
2019-01-10T14:03:05.461Z,41.23
2019-01-10T14:05:34.652Z,38.53
2019-01-10T14:08:04.397Z,40.13
2019-01-10T14:10:33.537Z,36.27
2019-01-10T14:13:02.858Z,38.07
2019-01-10T14:15:34.593Z,38.00
2019-01-10T14:18:06.379Z,40.43
2019-01-10T14:20:35.794Z,40.10
2019-01-10T14:23:05.455Z,38.40
2019-01-10T14:25:34.637Z,39.87
2019-01-10T14:28:04.265Z,38.87
2019-01-10T14:30:38.093Z,40.07
2019-01-10T14:33:10.505Z,38.63
2019-01-10T14:35:39.665Z,37.43
2019-01-10T14:38:09.337Z,37.90
2019-01-10T14:40:38.942Z,39.60
2019-01-10T14:43:08.214Z,37.60
2019-01-10T14:45:38.970Z,38.53
2019-01-10T14:48:08.157Z,37.30
2019-01-10T14:50:37.366Z,37.43
2019-01-10T14:53:06.853Z,39.83
2019-01-10T14:55:36.301Z,37.33
2019-01-10T14:58:06.101Z,38.73
2019-01-10T15:00:35.366Z,36.60
2019-01-10T15:03:04.794Z,35.37
2019-01-10T15:05:34.718Z,35.57
2019-01-10T15:08:04.453Z,36.13
2019-01-10T15:10:33.851Z,35.60
2019-01-10T15:13:02.958Z,33.77
2019-01-10T15:15:32.084Z,33.23
2019-01-10T15:18:01.478Z,35.47
2019-01-10T15:20:31.550Z,34.73
2019-01-10T15:23:00.786Z,34.43
2019-01-10T15:25:29.913Z,35.67
2019-01-10T15:27:59.081Z,35.63
2019-01-10T15:30:28.909Z,33.33
2019-01-10T15:32:58.140Z,34.23
2019-01-10T15:35:27.603Z,36.03
2019-01-10T15:37:56.768Z,39.60
2019-01-10T15:40:33.542Z,37.43
2019-01-10T15:43:03.708Z,38.03
2019-01-10T15:45:32.805Z,35.00
2019-01-10T15:48:02.218Z,38.07
2019-01-10T15:50:31.341Z,38.63
2019-01-10T15:53:00.478Z,38.23
2019-01-10T15:55:29.641Z,42.80
2019-01-10T15:57:59.133Z,41.63
2019-01-10T16:00:28.333Z,45.97
2019-01-10T16:02:57.438Z,46.00
2019-01-10T16:05:26.685Z,40.07
2019-01-10T16:07:55.829Z,42.30
2019-01-10T16:10:25.129Z,45.13
2019-01-10T16:12:54.249Z,48.23
2019-01-10T16:15:25.075Z,40.70
2019-01-10T16:17:54.217Z,38.37
2019-01-10T16:20:23.484Z,36.00
2019-01-10T16:22:53.285Z,35.33
2019-01-10T16:25:22.453Z,33.43
2019-01-10T16:27:51.622Z,32.43
2019-01-10T16:30:31.481Z,32.90
2019-01-10T16:33:00.628Z,35.80
2019-01-10T16:35:29.845Z,36.10
2019-01-10T16:37:58.997Z,35.23
2019-01-10T16:40:28.163Z,35.00
2019-01-10T16:42:57.309Z,41.00
2019-01-10T16:45:29.161Z,41.17
2019-01-10T16:47:58.289Z,39.53
2019-01-10T16:50:27.590Z,38.90
2019-01-10T16:52:56.765Z,35.83
2019-01-10T16:55:25.965Z,38.07
2019-01-10T16:57:55.095Z,38.23
2019-01-10T17:00:26.725Z,38.70
2019-01-10T17:02:56.272Z,40.77
2019-01-10T17:05:25.487Z,37.37
2019-01-10T17:07:54.718Z,40.67
2019-01-10T17:10:23.855Z,39.73
2019-01-10T17:12:52.977Z,42.50
2019-01-10T17:15:22.185Z,42.67
2019-01-10T17:17:51.359Z,43.10
2019-01-10T17:20:21.777Z,41.20
2019-01-10T17:22:50.897Z,43.10
2019-01-10T17:25:20.137Z,41.53
2019-01-10T17:27:49.626Z,42.57
2019-01-10T17:30:30.522Z,42.17
2019-01-10T17:33:00.545Z,42.83
2019-01-10T17:35:31.959Z,42.80
2019-01-10T17:38:01.754Z,42.77
2019-01-10T17:40:31.225Z,45.90
2019-01-10T17:43:00.786Z,43.90
2019-01-10T17:45:32.303Z,40.90
2019-01-10T17:48:01.433Z,42.00
2019-01-10T17:50:30.600Z,44.87
2019-01-10T17:52:59.749Z,44.63
2019-01-10T17:55:28.978Z,43.70
2019-01-10T17:57:58.171Z,43.53
2019-01-10T18:00:29.292Z,42.57
2019-01-10T18:02:58.441Z,45.20
2019-01-10T18:05:28.109Z,45.20
2019-01-10T18:07:57.250Z,46.83
2019-01-10T18:10:26.395Z,51.73
2019-01-10T18:12:55.535Z,50.03
2019-01-10T18:15:25.381Z,47.23
2019-01-10T18:17:54.554Z,49.37
2019-01-10T18:20:26.283Z,44.37
2019-01-10T18:22:55.579Z,43.43
2019-01-10T18:25:25.008Z,44.07
2019-01-10T18:27:54.514Z,43.40
2019-01-10T18:30:23.878Z,46.53
2019-01-10T18:32:53.069Z,45.50
2019-01-10T18:35:26.118Z,45.77
2019-01-10T18:37:53.444Z,48.17
2019-01-10T18:40:22.666Z,46.03
2019-01-10T18:42:51.930Z,45.07
2019-01-10T18:45:27.438Z,48.53
2019-01-10T18:47:57.298Z,46.13
2019-01-10T18:50:26.882Z,45.93
2019-01-10T18:52:56.085Z,45.77
2019-01-10T18:55:25.216Z,43.93
2019-01-10T18:57:54.337Z,47.70
2019-01-10T19:00:25.889Z,51.73
2019-01-10T19:02:55.869Z,51.33
2019-01-10T19:05:25.187Z,54.43
2019-01-10T19:07:54.325Z,55.87
2019-01-10T19:10:23.594Z,56.17
2019-01-10T19:12:52.829Z,58.03
2019-01-10T19:15:22.098Z,58.37
2019-01-10T19:17:51.249Z,59.20
2019-01-10T19:20:23.027Z,58.97
2019-01-10T19:22:52.233Z,59.33
2019-01-10T19:25:21.377Z,58.80
2019-01-10T19:27:50.555Z,60.37
2019-01-10T19:30:21.993Z,60.23
2019-01-10T19:32:51.128Z,61.80
2019-01-10T19:35:20.289Z,59.63
2019-01-10T19:37:49.594Z,56.00
2019-01-10T19:40:20.071Z,57.60
2019-01-10T19:42:49.337Z,54.40
2019-01-10T19:45:19.307Z,55.27
2019-01-10T19:47:48.618Z,54.97
2019-01-10T19:50:20.118Z,58.67
2019-01-10T19:52:49.446Z,54.37
2019-01-10T19:55:19.186Z,56.60
2019-01-10T19:57:48.479Z,56.97
2019-01-10T20:00:24.222Z,56.93
2019-01-10T20:02:53.621Z,56.93
2019-01-10T20:05:22.841Z,58.00
2019-01-10T20:07:52.121Z,55.50
2019-01-10T20:10:21.313Z,52.30
2019-01-10T20:12:50.774Z,51.73
2019-01-10T20:15:21.281Z,52.13
2019-01-10T20:17:50.704Z,50.37
2019-01-10T20:20:23.521Z,52.27
2019-01-10T20:22:52.653Z,49.30
2019-01-10T20:25:21.893Z,52.47
2019-01-10T20:27:51.164Z,51.30
2019-01-10T20:30:20.661Z,51.27
2019-01-10T20:32:49.790Z,51.37
2019-01-10T20:35:19.018Z,50.13
2019-01-10T20:37:48.178Z,44.73
2019-01-10T20:40:17.911Z,45.53
2019-01-10T20:42:47.166Z,43.67
2019-01-10T20:45:16.553Z,46.10
2019-01-10T20:47:45.729Z,44.80
2019-01-10T20:50:14.993Z,44.23
2019-01-10T20:52:44.222Z,47.07
2019-01-10T20:55:13.838Z,46.27
2019-01-10T20:57:43.042Z,45.10
2019-01-10T21:00:15.241Z,51.57
2019-01-10T21:02:44.781Z,48.47
2019-01-10T21:05:14.059Z,47.57
2019-01-10T21:07:45.352Z,47.87
2019-01-10T21:10:14.906Z,48.27
2019-01-10T21:12:44.029Z,45.40
2019-01-10T21:15:16.081Z,46.77
2019-01-10T21:17:45.306Z,48.93
2019-01-10T21:20:14.581Z,49.80
2019-01-10T21:22:43.757Z,48.40
2019-01-10T21:25:13.684Z,44.50
2019-01-10T21:27:42.811Z,44.73
2019-01-10T21:30:14.541Z,43.13
2019-01-10T21:32:43.713Z,42.27
2019-01-10T21:35:12.846Z,42.30
2019-01-10T21:37:42.021Z,41.27
2019-01-10T21:40:13.125Z,42.80
2019-01-10T21:42:42.265Z,46.00
2019-01-10T21:45:13.899Z,44.83
2019-01-10T21:47:43.022Z,43.03
2019-01-10T21:50:14.650Z,41.07
2019-01-10T21:52:43.910Z,44.23
2019-01-10T21:55:13.291Z,45.87
2019-01-10T21:57:42.417Z,45.03
2019-01-10T22:00:15.409Z,47.00
2019-01-10T22:02:44.537Z,48.87
2019-01-10T22:05:13.723Z,51.50
2019-01-10T22:07:42.849Z,46.30
2019-01-10T22:10:12.217Z,51.57
2019-01-10T22:12:41.487Z,52.27
2019-01-10T22:15:11.642Z,51.70
2019-01-10T22:17:40.802Z,49.73
2019-01-10T22:20:11.922Z,51.50
2019-01-10T22:22:41.073Z,52.30
2019-01-10T22:25:10.413Z,52.67
2019-01-10T22:27:40.042Z,49.70
2019-01-10T22:30:12.117Z,46.90
2019-01-10T22:32:41.260Z,47.47
2019-01-10T22:35:12.449Z,45.40
2019-01-10T22:37:41.575Z,46.93
2019-01-10T22:40:13.266Z,47.20
2019-01-10T22:42:42.368Z,45.03
2019-01-10T22:45:12.019Z,46.53
2019-01-10T22:47:41.212Z,47.90
2019-01-10T22:50:12.050Z,45.73
2019-01-10T22:52:41.218Z,45.33
2019-01-10T22:55:11.902Z,45.93
2019-01-10T22:57:41.074Z,46.67
2019-01-10T23:01:14.131Z,46.97
2019-01-10T23:03:43.738Z,47.63
2019-01-10T23:06:12.855Z,45.63
2019-01-10T23:08:48.609Z,47.47
2019-01-10T23:11:19.954Z,45.10
2019-01-10T23:14:08.097Z,46.30
2019-01-10T23:16:37.773Z,47.20
2019-01-10T23:19:07.574Z,45.07
2019-01-10T23:21:38.846Z,48.93
2019-01-10T23:24:13.897Z,49.73
2019-01-10T23:26:53.730Z,47.87
2019-01-10T23:29:25.769Z,46.27
2019-01-10T23:31:54.892Z,46.60
2019-01-10T23:34:24.057Z,45.07
2019-01-10T23:36:53.970Z,46.20
2019-01-10T23:39:24.212Z,46.00
2019-01-10T23:41:54.768Z,45.20
2019-01-10T23:44:24.377Z,45.67
2019-01-10T23:46:53.673Z,46.50
2019-01-10T23:49:22.837Z,42.97
2019-01-10T23:51:52.285Z,43.90
2019-01-10T23:54:21.449Z,45.13
2019-01-10T23:56:50.629Z,43.47
2019-01-10T23:59:19.761Z,42.80
